sensor_id;sensor_type;location;lat;lon;timestamp;P1;durP1;ratioP1;P2;durP2;ratioP2
62798;SDS011;48842;51.046;13.796;2023-02-11T00:01:10;36.90;;;21.47;;
62798;SDS011;48842;51.046;13.796;2023-02-11T00:03:42;31.83;;;21.87;;
62798;SDS011;48842;51.046;13.796;2023-02-11T00:06:07;29.83;;;20.90;;
62798;SDS011;48842;51.046;13.796;2023-02-11T00:08:36;34.40;;;22.77;;
62798;SDS011;48842;51.046;13.796;2023-02-11T00:11:02;35.67;;;21.43;;
62798;SDS011;48842;51.046;13.796;2023-02-11T00:13:28;33.33;;;21.30;;
62798;SDS011;48842;51.046;13.796;2023-02-11T00:15:53;35.70;;;21.60;;
62798;SDS011;48842;51.046;13.796;2023-02-11T00:18:19;36.40;;;23.17;;
62798;SDS011;48842;51.046;13.796;2023-02-11T00:20:44;36.80;;;21.90;;
62798;SDS011;48842;51.046;13.796;2023-02-11T00:23:10;34.97;;;21.33;;
62798;SDS011;48842;51.046;13.796;2023-02-11T00:25:42;30.50;;;20.97;;
62798;SDS011;48842;51.046;13.796;2023-02-11T00:28:09;33.40;;;21.33;;
62798;SDS011;48842;51.046;13.796;2023-02-11T00:30:35;37.03;;;22.77;;
62798;SDS011;48842;51.046;13.796;2023-02-11T00:33:00;29.40;;;20.47;;
62798;SDS011;48842;51.046;13.796;2023-02-11T00:35:26;33.30;;;21.80;;
62798;SDS011;48842;51.046;13.796;2023-02-11T00:37:52;33.77;;;21.70;;
62798;SDS011;48842;51.046;13.796;2023-02-11T00:40:17;33.57;;;22.10;;
62798;SDS011;48842;51.046;13.796;2023-02-11T00:42:43;34.27;;;21.13;;
62798;SDS011;48842;51.046;13.796;2023-02-11T00:45:08;30.27;;;20.00;;
62798;SDS011;48842;51.046;13.796;2023-02-11T00:47:34;33.57;;;21.80;;
62798;SDS011;48842;51.046;13.796;2023-02-11T00:49:59;32.00;;;20.90;;
62798;SDS011;48842;51.046;13.796;2023-02-11T00:52:24;33.23;;;21.47;;
62798;SDS011;48842;51.046;13.796;2023-02-11T00:54:50;32.03;;;20.83;;
62798;SDS011;48842;51.046;13.796;2023-02-11T00:57:15;33.07;;;21.10;;
62798;SDS011;48842;51.046;13.796;2023-02-11T00:59:40;31.90;;;21.20;;
62798;SDS011;48842;51.046;13.796;2023-02-11T01:02:05;32.87;;;19.60;;
62798;SDS011;48842;51.046;13.796;2023-02-11T01:04:31;29.67;;;20.40;;
62798;SDS011;48842;51.046;13.796;2023-02-11T01:06:56;31.93;;;19.10;;
62798;SDS011;48842;51.046;13.796;2023-02-11T01:09:21;28.27;;;18.83;;
62798;SDS011;48842;51.046;13.796;2023-02-11T01:11:46;30.10;;;18.40;;
62798;SDS011;48842;51.046;13.796;2023-02-11T01:14:12;30.47;;;19.07;;
62798;SDS011;48842;51.046;13.796;2023-02-11T01:16:37;28.03;;;18.90;;
62798;SDS011;48842;51.046;13.796;2023-02-11T01:19:02;33.33;;;20.27;;
62798;SDS011;48842;51.046;13.796;2023-02-11T01:21:28;31.93;;;19.00;;
62798;SDS011;48842;51.046;13.796;2023-02-11T01:23:53;28.73;;;19.60;;
62798;SDS011;48842;51.046;13.796;2023-02-11T01:26:18;26.27;;;17.93;;
62798;SDS011;48842;51.046;13.796;2023-02-11T01:28:44;27.50;;;18.50;;
62798;SDS011;48842;51.046;13.796;2023-02-11T01:31:09;30.60;;;18.53;;
62798;SDS011;48842;51.046;13.796;2023-02-11T01:33:34;29.47;;;18.83;;
62798;SDS011;48842;51.046;13.796;2023-02-11T01:36:03;28.50;;;18.60;;
62798;SDS011;48842;51.046;13.796;2023-02-11T01:38:29;25.03;;;18.07;;
62798;SDS011;48842;51.046;13.796;2023-02-11T01:40:56;26.30;;;18.63;;
62798;SDS011;48842;51.046;13.796;2023-02-11T01:43:24;28.30;;;19.33;;
62798;SDS011;48842;51.046;13.796;2023-02-11T01:45:53;26.00;;;18.90;;
62798;SDS011;48842;51.046;13.796;2023-02-11T01:48:27;24.90;;;18.20;;
62798;SDS011;48842;51.046;13.796;2023-02-11T01:50:58;26.67;;;19.60;;
62798;SDS011;48842;51.046;13.796;2023-02-11T01:53:28;29.43;;;19.00;;
62798;SDS011;48842;51.046;13.796;2023-02-11T01:56:14;33.70;;;20.10;;
62798;SDS011;48842;51.046;13.796;2023-02-11T01:59:05;25.80;;;18.10;;
62798;SDS011;48842;51.046;13.796;2023-02-11T02:01:35;29.67;;;19.20;;
62798;SDS011;48842;51.046;13.796;2023-02-11T02:04:03;31.03;;;18.87;;
62798;SDS011;48842;51.046;13.796;2023-02-11T02:09:05;27.33;;;19.43;;
62798;SDS011;48842;51.046;13.796;2023-02-11T02:11:35;26.20;;;18.93;;
62798;SDS011;48842;51.046;13.796;2023-02-11T02:14:00;28.10;;;20.20;;
62798;SDS011;48842;51.046;13.796;2023-02-11T02:16:30;27.43;;;19.77;;
62798;SDS011;48842;51.046;13.796;2023-02-11T02:19:17;26.33;;;19.60;;
62798;SDS011;48842;51.046;13.796;2023-02-11T02:25:17;27.13;;;19.07;;
62798;SDS011;48842;51.046;13.796;2023-02-11T02:27:59;28.80;;;21.30;;
62798;SDS011;48842;51.046;13.796;2023-02-11T02:31:06;27.57;;;19.97;;
62798;SDS011;48842;51.046;13.796;2023-02-11T02:33:59;26.37;;;19.50;;
62798;SDS011;48842;51.046;13.796;2023-02-11T02:36:36;28.90;;;19.47;;
62798;SDS011;48842;51.046;13.796;2023-02-11T02:39:10;27.03;;;20.30;;
62798;SDS011;48842;51.046;13.796;2023-02-11T02:41:42;31.83;;;21.20;;
62798;SDS011;48842;51.046;13.796;2023-02-11T02:44:09;28.43;;;20.83;;
62798;SDS011;48842;51.046;13.796;2023-02-11T02:46:35;30.93;;;21.93;;
62798;SDS011;48842;51.046;13.796;2023-02-11T02:49:01;31.33;;;19.90;;
62798;SDS011;48842;51.046;13.796;2023-02-11T02:54:42;26.30;;;20.07;;
62798;SDS011;48842;51.046;13.796;2023-02-11T02:57:27;28.10;;;19.60;;
62798;SDS011;48842;51.046;13.796;2023-02-11T03:02:49;26.00;;;19.67;;
62798;SDS011;48842;51.046;13.796;2023-02-11T03:05:30;29.70;;;19.87;;
62798;SDS011;48842;51.046;13.796;2023-02-11T03:08:05;28.73;;;20.60;;
62798;SDS011;48842;51.046;13.796;2023-02-11T03:10:47;33.33;;;20.93;;
62798;SDS011;48842;51.046;13.796;2023-02-11T03:13:15;29.80;;;20.43;;
62798;SDS011;48842;51.046;13.796;2023-02-11T03:15:45;28.60;;;20.03;;
62798;SDS011;48842;51.046;13.796;2023-02-11T03:18:14;27.07;;;20.60;;
62798;SDS011;48842;51.046;13.796;2023-02-11T03:20:43;24.40;;;19.57;;
62798;SDS011;48842;51.046;13.796;2023-02-11T03:23:20;31.63;;;19.87;;
62798;SDS011;48842;51.046;13.796;2023-02-11T03:25:55;32.70;;;20.20;;
62798;SDS011;48842;51.046;13.796;2023-02-11T03:28:37;26.30;;;18.63;;
62798;SDS011;48842;51.046;13.796;2023-02-11T03:31:10;25.37;;;19.20;;
62798;SDS011;48842;51.046;13.796;2023-02-11T03:33:59;28.63;;;19.60;;
62798;SDS011;48842;51.046;13.796;2023-02-11T03:36:35;25.53;;;18.70;;
62798;SDS011;48842;51.046;13.796;2023-02-11T03:39:10;27.77;;;20.17;;
62798;SDS011;48842;51.046;13.796;2023-02-11T03:41:37;32.70;;;19.30;;
62798;SDS011;48842;51.046;13.796;2023-02-11T03:44:04;33.10;;;20.83;;
62798;SDS011;48842;51.046;13.796;2023-02-11T03:46:32;30.63;;;19.37;;
62798;SDS011;48842;51.046;13.796;2023-02-11T03:49:02;28.20;;;19.57;;
62798;SDS011;48842;51.046;13.796;2023-02-11T03:51:30;28.13;;;19.40;;
62798;SDS011;48842;51.046;13.796;2023-02-11T03:53:56;29.93;;;21.33;;
62798;SDS011;48842;51.046;13.796;2023-02-11T03:56:26;33.03;;;23.23;;
62798;SDS011;48842;51.046;13.796;2023-02-11T03:58:56;30.07;;;21.60;;
62798;SDS011;48842;51.046;13.796;2023-02-11T04:01:21;31.87;;;21.53;;
62798;SDS011;48842;51.046;13.796;2023-02-11T04:03:46;31.00;;;21.07;;
62798;SDS011;48842;51.046;13.796;2023-02-11T04:06:12;31.03;;;22.37;;
62798;SDS011;48842;51.046;13.796;2023-02-11T04:08:37;31.73;;;20.97;;
62798;SDS011;48842;51.046;13.796;2023-02-11T04:11:02;29.53;;;20.87;;
62798;SDS011;48842;51.046;13.796;2023-02-11T04:13:28;33.60;;;22.77;;
62798;SDS011;48842;51.046;13.796;2023-02-11T04:15:53;31.43;;;21.87;;
62798;SDS011;48842;51.046;13.796;2023-02-11T04:18:18;34.73;;;23.17;;
62798;SDS011;48842;51.046;13.796;2023-02-11T04:20:44;33.03;;;22.10;;
62798;SDS011;48842;51.046;13.796;2023-02-11T04:23:09;30.30;;;21.77;;
62798;SDS011;48842;51.046;13.796;2023-02-11T04:25:34;32.40;;;21.90;;
62798;SDS011;48842;51.046;13.796;2023-02-11T04:28:00;32.83;;;21.67;;
62798;SDS011;48842;51.046;13.796;2023-02-11T04:30:25;30.70;;;20.83;;
62798;SDS011;48842;51.046;13.796;2023-02-11T04:32:50;30.70;;;21.57;;
62798;SDS011;48842;51.046;13.796;2023-02-11T04:35:15;32.03;;;21.87;;
62798;SDS011;48842;51.046;13.796;2023-02-11T04:37:41;30.40;;;21.80;;
62798;SDS011;48842;51.046;13.796;2023-02-11T04:40:06;32.93;;;21.20;;
62798;SDS011;48842;51.046;13.796;2023-02-11T04:42:32;33.57;;;21.90;;
62798;SDS011;48842;51.046;13.796;2023-02-11T04:44:57;36.33;;;21.03;;
62798;SDS011;48842;51.046;13.796;2023-02-11T04:47:22;29.10;;;22.03;;
62798;SDS011;48842;51.046;13.796;2023-02-11T04:49:47;40.13;;;23.37;;
62798;SDS011;48842;51.046;13.796;2023-02-11T04:52:13;30.70;;;21.57;;
62798;SDS011;48842;51.046;13.796;2023-02-11T04:54:39;28.33;;;20.40;;
62798;SDS011;48842;51.046;13.796;2023-02-11T04:57:04;30.77;;;20.93;;
62798;SDS011;48842;51.046;13.796;2023-02-11T04:59:29;26.77;;;20.30;;
62798;SDS011;48842;51.046;13.796;2023-02-11T05:01:55;34.37;;;22.70;;
62798;SDS011;48842;51.046;13.796;2023-02-11T05:04:20;34.40;;;22.10;;
62798;SDS011;48842;51.046;13.796;2023-02-11T05:06:46;34.90;;;22.20;;
62798;SDS011;48842;51.046;13.796;2023-02-11T05:09:11;32.80;;;22.33;;
62798;SDS011;48842;51.046;13.796;2023-02-11T05:11:37;32.03;;;22.60;;
62798;SDS011;48842;51.046;13.796;2023-02-11T05:14:03;35.80;;;22.07;;
62798;SDS011;48842;51.046;13.796;2023-02-11T05:16:29;34.80;;;24.03;;
62798;SDS011;48842;51.046;13.796;2023-02-11T05:18:54;36.13;;;23.47;;
62798;SDS011;48842;51.046;13.796;2023-02-11T05:21:20;33.40;;;22.90;;
62798;SDS011;48842;51.046;13.796;2023-02-11T05:23:45;35.73;;;22.80;;
62798;SDS011;48842;51.046;13.796;2023-02-11T05:26:11;37.43;;;22.73;;
62798;SDS011;48842;51.046;13.796;2023-02-11T05:28:37;32.37;;;23.13;;
62798;SDS011;48842;51.046;13.796;2023-02-11T05:31:03;33.87;;;22.90;;
62798;SDS011;48842;51.046;13.796;2023-02-11T05:33:28;32.93;;;23.07;;
62798;SDS011;48842;51.046;13.796;2023-02-11T05:36:02;33.60;;;22.67;;
62798;SDS011;48842;51.046;13.796;2023-02-11T05:38:30;35.10;;;24.17;;
62798;SDS011;48842;51.046;13.796;2023-02-11T05:40:55;33.90;;;22.10;;
62798;SDS011;48842;51.046;13.796;2023-02-11T05:43:21;33.83;;;22.97;;
62798;SDS011;48842;51.046;13.796;2023-02-11T05:45:46;33.30;;;23.20;;
62798;SDS011;48842;51.046;13.796;2023-02-11T05:48:12;38.00;;;22.40;;
62798;SDS011;48842;51.046;13.796;2023-02-11T05:50:37;31.77;;;22.47;;
62798;SDS011;48842;51.046;13.796;2023-02-11T05:53:02;43.87;;;24.37;;
62798;SDS011;48842;51.046;13.796;2023-02-11T05:55:29;37.10;;;25.10;;
62798;SDS011;48842;51.046;13.796;2023-02-11T05:57:54;35.07;;;23.80;;
62798;SDS011;48842;51.046;13.796;2023-02-11T06:00:20;43.87;;;25.30;;
62798;SDS011;48842;51.046;13.796;2023-02-11T06:02:45;38.50;;;24.27;;
62798;SDS011;48842;51.046;13.796;2023-02-11T06:05:10;35.33;;;23.70;;
62798;SDS011;48842;51.046;13.796;2023-02-11T06:07:35;41.90;;;26.80;;
62798;SDS011;48842;51.046;13.796;2023-02-11T06:10:01;38.57;;;24.83;;
62798;SDS011;48842;51.046;13.796;2023-02-11T06:12:26;38.70;;;24.27;;
62798;SDS011;48842;51.046;13.796;2023-02-11T06:14:52;38.40;;;24.20;;
62798;SDS011;48842;51.046;13.796;2023-02-11T06:17:17;36.93;;;25.30;;
62798;SDS011;48842;51.046;13.796;2023-02-11T06:19:43;39.70;;;25.37;;
62798;SDS011;48842;51.046;13.796;2023-02-11T06:22:08;37.17;;;25.00;;
62798;SDS011;48842;51.046;13.796;2023-02-11T06:24:34;35.63;;;23.60;;
62798;SDS011;48842;51.046;13.796;2023-02-11T06:26:59;32.40;;;22.60;;
62798;SDS011;48842;51.046;13.796;2023-02-11T06:29:24;37.47;;;25.50;;
62798;SDS011;48842;51.046;13.796;2023-02-11T06:31:50;36.73;;;24.27;;
62798;SDS011;48842;51.046;13.796;2023-02-11T06:34:15;38.53;;;24.00;;
62798;SDS011;48842;51.046;13.796;2023-02-11T06:36:40;36.30;;;24.20;;
62798;SDS011;48842;51.046;13.796;2023-02-11T06:39:06;35.67;;;24.40;;
62798;SDS011;48842;51.046;13.796;2023-02-11T06:41:32;39.13;;;23.67;;
62798;SDS011;48842;51.046;13.796;2023-02-11T06:43:57;36.33;;;24.13;;
62798;SDS011;48842;51.046;13.796;2023-02-11T06:46:23;35.30;;;24.42;;
62798;SDS011;48842;51.046;13.796;2023-02-11T06:48:48;34.70;;;25.27;;
62798;SDS011;48842;51.046;13.796;2023-02-11T06:51:13;36.53;;;25.57;;
62798;SDS011;48842;51.046;13.796;2023-02-11T06:53:42;33.03;;;24.90;;
62798;SDS011;48842;51.046;13.796;2023-02-11T06:56:10;37.73;;;25.23;;
62798;SDS011;48842;51.046;13.796;2023-02-11T06:58:40;44.50;;;24.77;;
62798;SDS011;48842;51.046;13.796;2023-02-11T07:01:06;43.73;;;24.77;;
62798;SDS011;48842;51.046;13.796;2023-02-11T07:03:35;44.53;;;26.97;;
62798;SDS011;48842;51.046;13.796;2023-02-11T07:06:02;35.03;;;24.13;;
62798;SDS011;48842;51.046;13.796;2023-02-11T07:08:29;46.43;;;26.50;;
62798;SDS011;48842;51.046;13.796;2023-02-11T07:10:55;35.23;;;23.90;;
62798;SDS011;48842;51.046;13.796;2023-02-11T07:13:20;34.97;;;24.07;;
62798;SDS011;48842;51.046;13.796;2023-02-11T07:15:45;49.63;;;30.47;;
62798;SDS011;48842;51.046;13.796;2023-02-11T07:18:10;43.70;;;26.00;;
62798;SDS011;48842;51.046;13.796;2023-02-11T07:20:36;41.10;;;26.00;;
62798;SDS011;48842;51.046;13.796;2023-02-11T07:23:02;39.47;;;24.40;;
62798;SDS011;48842;51.046;13.796;2023-02-11T07:25:27;34.60;;;24.47;;
62798;SDS011;48842;51.046;13.796;2023-02-11T07:27:53;40.43;;;25.87;;
62798;SDS011;48842;51.046;13.796;2023-02-11T07:30:18;39.50;;;24.80;;
62798;SDS011;48842;51.046;13.796;2023-02-11T07:32:43;36.73;;;24.37;;
62798;SDS011;48842;51.046;13.796;2023-02-11T07:35:08;36.80;;;24.60;;
62798;SDS011;48842;51.046;13.796;2023-02-11T07:37:34;37.10;;;24.10;;
62798;SDS011;48842;51.046;13.796;2023-02-11T07:40:00;35.47;;;23.97;;
62798;SDS011;48842;51.046;13.796;2023-02-11T07:42:25;35.67;;;23.93;;
62798;SDS011;48842;51.046;13.796;2023-02-11T07:44:50;39.03;;;23.43;;
62798;SDS011;48842;51.046;13.796;2023-02-11T07:47:16;39.67;;;25.17;;
62798;SDS011;48842;51.046;13.796;2023-02-11T07:49:41;41.07;;;25.67;;
62798;SDS011;48842;51.046;13.796;2023-02-11T07:52:06;43.70;;;25.30;;
62798;SDS011;48842;51.046;13.796;2023-02-11T07:54:32;37.87;;;24.90;;
62798;SDS011;48842;51.046;13.796;2023-02-11T07:56:57;37.10;;;25.97;;
62798;SDS011;48842;51.046;13.796;2023-02-11T07:59:22;41.17;;;26.27;;
62798;SDS011;48842;51.046;13.796;2023-02-11T08:01:48;41.17;;;26.80;;
62798;SDS011;48842;51.046;13.796;2023-02-11T08:04:15;39.53;;;27.30;;
62798;SDS011;48842;51.046;13.796;2023-02-11T08:06:41;37.20;;;26.20;;
62798;SDS011;48842;51.046;13.796;2023-02-11T08:09:09;36.73;;;25.00;;
62798;SDS011;48842;51.046;13.796;2023-02-11T08:11:38;37.23;;;24.33;;
62798;SDS011;48842;51.046;13.796;2023-02-11T08:14:03;38.03;;;25.00;;
62798;SDS011;48842;51.046;13.796;2023-02-11T08:16:30;38.43;;;26.80;;
62798;SDS011;48842;51.046;13.796;2023-02-11T08:18:58;40.73;;;25.80;;
62798;SDS011;48842;51.046;13.796;2023-02-11T08:21:24;37.87;;;24.70;;
62798;SDS011;48842;51.046;13.796;2023-02-11T08:23:50;34.53;;;24.20;;
62798;SDS011;48842;51.046;13.796;2023-02-11T08:26:17;40.10;;;26.77;;
62798;SDS011;48842;51.046;13.796;2023-02-11T08:28:45;38.57;;;23.40;;
62798;SDS011;48842;51.046;13.796;2023-02-11T08:31:16;40.63;;;26.37;;
62798;SDS011;48842;51.046;13.796;2023-02-11T08:33:46;37.07;;;25.07;;
62798;SDS011;48842;51.046;13.796;2023-02-11T08:36:13;39.10;;;26.77;;
62798;SDS011;48842;51.046;13.796;2023-02-11T08:38:40;47.60;;;29.20;;
62798;SDS011;48842;51.046;13.796;2023-02-11T08:41:05;38.10;;;23.60;;
62798;SDS011;48842;51.046;13.796;2023-02-11T08:43:31;35.97;;;23.87;;
62798;SDS011;48842;51.046;13.796;2023-02-11T08:45:57;43.33;;;28.13;;
62798;SDS011;48842;51.046;13.796;2023-02-11T08:48:22;38.33;;;25.10;;
62798;SDS011;48842;51.046;13.796;2023-02-11T08:50:48;36.83;;;23.47;;
62798;SDS011;48842;51.046;13.796;2023-02-11T08:53:13;37.83;;;23.73;;
62798;SDS011;48842;51.046;13.796;2023-02-11T08:55:38;38.50;;;23.77;;
62798;SDS011;48842;51.046;13.796;2023-02-11T08:58:03;43.20;;;24.83;;
62798;SDS011;48842;51.046;13.796;2023-02-11T09:00:29;39.87;;;23.20;;
62798;SDS011;48842;51.046;13.796;2023-02-11T09:02:54;36.50;;;24.80;;
62798;SDS011;48842;51.046;13.796;2023-02-11T09:05:19;39.63;;;24.00;;
62798;SDS011;48842;51.046;13.796;2023-02-11T09:07:46;41.17;;;26.13;;
62798;SDS011;48842;51.046;13.796;2023-02-11T09:10:11;38.03;;;24.80;;
62798;SDS011;48842;51.046;13.796;2023-02-11T09:12:36;39.13;;;23.30;;
62798;SDS011;48842;51.046;13.796;2023-02-11T09:15:02;39.97;;;24.00;;
62798;SDS011;48842;51.046;13.796;2023-02-11T09:17:27;35.23;;;23.70;;
62798;SDS011;48842;51.046;13.796;2023-02-11T09:19:52;37.90;;;24.27;;
62798;SDS011;48842;51.046;13.796;2023-02-11T09:22:17;36.73;;;23.77;;
62798;SDS011;48842;51.046;13.796;2023-02-11T09:24:43;36.93;;;23.13;;
62798;SDS011;48842;51.046;13.796;2023-02-11T09:27:08;35.70;;;22.77;;
62798;SDS011;48842;51.046;13.796;2023-02-11T09:29:33;34.10;;;23.60;;
62798;SDS011;48842;51.046;13.796;2023-02-11T09:31:59;41.77;;;26.50;;
62798;SDS011;48842;51.046;13.796;2023-02-11T09:34:25;41.73;;;25.63;;
62798;SDS011;48842;51.046;13.796;2023-02-11T09:36:50;36.40;;;23.90;;
62798;SDS011;48842;51.046;13.796;2023-02-11T09:39:16;36.87;;;25.10;;
62798;SDS011;48842;51.046;13.796;2023-02-11T09:42:06;35.50;;;24.63;;
62798;SDS011;48842;51.046;13.796;2023-02-11T09:44:41;44.80;;;26.43;;
62798;SDS011;48842;51.046;13.796;2023-02-11T09:47:27;39.00;;;25.53;;
62798;SDS011;48842;51.046;13.796;2023-02-11T09:50:02;39.50;;;24.20;;
62798;SDS011;48842;51.046;13.796;2023-02-11T09:52:49;34.20;;;24.90;;
62798;SDS011;48842;51.046;13.796;2023-02-11T09:55:27;41.77;;;24.37;;
62798;SDS011;48842;51.046;13.796;2023-02-11T09:58:14;38.60;;;25.63;;
62798;SDS011;48842;51.046;13.796;2023-02-11T10:00:44;39.50;;;24.30;;
62798;SDS011;48842;51.046;13.796;2023-02-11T10:06:21;42.17;;;25.73;;
62798;SDS011;48842;51.046;13.796;2023-02-11T10:14:24;35.00;;;24.80;;
62798;SDS011;48842;51.046;13.796;2023-02-11T10:17:13;36.70;;;25.97;;
62798;SDS011;48842;51.046;13.796;2023-02-11T10:22:56;32.77;;;23.83;;
62798;SDS011;48842;51.046;13.796;2023-02-11T10:25:26;37.67;;;26.20;;
62798;SDS011;48842;51.046;13.796;2023-02-11T10:27:57;37.03;;;23.33;;
62798;SDS011;48842;51.046;13.796;2023-02-11T10:30:27;41.93;;;26.67;;
62798;SDS011;48842;51.046;13.796;2023-02-11T10:33:03;44.53;;;25.30;;
62798;SDS011;48842;51.046;13.796;2023-02-11T10:35:43;34.23;;;23.63;;
62798;SDS011;48842;51.046;13.796;2023-02-11T10:38:10;36.80;;;25.20;;
62798;SDS011;48842;51.046;13.796;2023-02-11T10:40:36;36.30;;;25.27;;
62798;SDS011;48842;51.046;13.796;2023-02-11T10:43:05;36.13;;;24.17;;
62798;SDS011;48842;51.046;13.796;2023-02-11T10:45:38;37.93;;;24.13;;
62798;SDS011;48842;51.046;13.796;2023-02-11T10:48:34;36.03;;;24.90;;
62798;SDS011;48842;51.046;13.796;2023-02-11T10:53:45;34.53;;;22.47;;
62798;SDS011;48842;51.046;13.796;2023-02-11T10:56:46;33.13;;;23.30;;
62798;SDS011;48842;51.046;13.796;2023-02-11T10:59:16;35.60;;;24.07;;
62798;SDS011;48842;51.046;13.796;2023-02-11T11:01:51;34.47;;;22.20;;
62798;SDS011;48842;51.046;13.796;2023-02-11T11:04:33;37.53;;;24.50;;
62798;SDS011;48842;51.046;13.796;2023-02-11T11:07:14;31.70;;;22.67;;
62798;SDS011;48842;51.046;13.796;2023-02-11T11:09:46;31.50;;;23.33;;
62798;SDS011;48842;51.046;13.796;2023-02-11T11:12:22;36.50;;;24.03;;
62798;SDS011;48842;51.046;13.796;2023-02-11T11:14:54;33.57;;;23.73;;
62798;SDS011;48842;51.046;13.796;2023-02-11T11:17:20;30.40;;;22.83;;
62798;SDS011;48842;51.046;13.796;2023-02-11T11:19:45;36.43;;;24.47;;
62798;SDS011;48842;51.046;13.796;2023-02-11T11:22:18;31.20;;;23.40;;
62798;SDS011;48842;51.046;13.796;2023-02-11T11:24:46;33.70;;;24.27;;
62798;SDS011;48842;51.046;13.796;2023-02-11T11:27:18;32.57;;;22.83;;
62798;SDS011;48842;51.046;13.796;2023-02-11T11:29:48;37.20;;;23.03;;
62798;SDS011;48842;51.046;13.796;2023-02-11T11:32:18;35.13;;;23.50;;
62798;SDS011;48842;51.046;13.796;2023-02-11T11:34:50;36.63;;;25.90;;
62798;SDS011;48842;51.046;13.796;2023-02-11T11:37:22;38.20;;;23.27;;
62798;SDS011;48842;51.046;13.796;2023-02-11T11:40:35;31.33;;;23.27;;
62798;SDS011;48842;51.046;13.796;2023-02-11T11:42:39;37.60;;;23.90;;
62798;SDS011;48842;51.046;13.796;2023-02-11T11:50:25;33.80;;;21.97;;
62798;SDS011;48842;51.046;13.796;2023-02-11T11:53:19;34.03;;;23.30;;
62798;SDS011;48842;51.046;13.796;2023-02-11T11:55:56;37.57;;;24.47;;
62798;SDS011;48842;51.046;13.796;2023-02-11T11:58:26;31.07;;;22.40;;
62798;SDS011;48842;51.046;13.796;2023-02-11T12:04:00;35.27;;;23.57;;
62798;SDS011;48842;51.046;13.796;2023-02-11T12:12:10;36.00;;;22.63;;
62798;SDS011;48842;51.046;13.796;2023-02-11T12:20:21;33.23;;;22.40;;
62798;SDS011;48842;51.046;13.796;2023-02-11T12:26:01;34.43;;;22.07;;
62798;SDS011;48842;51.046;13.796;2023-02-11T12:28:43;28.97;;;21.57;;
62798;SDS011;48842;51.046;13.796;2023-02-11T12:34:16;34.23;;;23.30;;
62798;SDS011;48842;51.046;13.796;2023-02-11T12:39:49;30.50;;;21.00;;
62798;SDS011;48842;51.046;13.796;2023-02-11T12:42:35;33.47;;;22.20;;
62798;SDS011;48842;51.046;13.796;2023-02-11T12:48:55;37.40;;;21.67;;
62798;SDS011;48842;51.046;13.796;2023-02-11T12:52:00;34.33;;;22.90;;
62798;SDS011;48842;51.046;13.796;2023-02-11T12:54:59;35.03;;;22.73;;
62798;SDS011;48842;51.046;13.796;2023-02-11T12:57:28;32.83;;;22.27;;
62798;SDS011;48842;51.046;13.796;2023-02-11T13:02:55;34.37;;;21.87;;
62798;SDS011;48842;51.046;13.796;2023-02-11T13:08:06;31.97;;;22.10;;
62798;SDS011;48842;51.046;13.796;2023-02-11T13:10:35;29.63;;;22.17;;
62798;SDS011;48842;51.046;13.796;2023-02-11T13:13:14;32.37;;;20.83;;
62798;SDS011;48842;51.046;13.796;2023-02-11T13:15:54;32.57;;;22.40;;
62798;SDS011;48842;51.046;13.796;2023-02-11T13:21:14;31.87;;;22.63;;
62798;SDS011;48842;51.046;13.796;2023-02-11T13:24:12;31.63;;;22.53;;
62798;SDS011;48842;51.046;13.796;2023-02-11T13:26:48;32.40;;;21.83;;
62798;SDS011;48842;51.046;13.796;2023-02-11T13:32:27;34.07;;;22.37;;
62798;SDS011;48842;51.046;13.796;2023-02-11T13:35:34;38.93;;;22.10;;
62798;SDS011;48842;51.046;13.796;2023-02-11T13:38:02;32.27;;;22.83;;
62798;SDS011;48842;51.046;13.796;2023-02-11T13:40:36;35.23;;;23.07;;
62798;SDS011;48842;51.046;13.796;2023-02-11T13:43:04;34.43;;;22.57;;
62798;SDS011;48842;51.046;13.796;2023-02-11T13:45:48;34.20;;;23.60;;
62798;SDS011;48842;51.046;13.796;2023-02-11T13:48:20;32.00;;;22.33;;
62798;SDS011;48842;51.046;13.796;2023-02-11T13:51:04;34.33;;;22.40;;
62798;SDS011;48842;51.046;13.796;2023-02-11T13:54:05;30.83;;;22.13;;
62798;SDS011;48842;51.046;13.796;2023-02-11T13:56:33;30.60;;;21.60;;
62798;SDS011;48842;51.046;13.796;2023-02-11T13:59:01;33.87;;;21.43;;
62798;SDS011;48842;51.046;13.796;2023-02-11T14:04:31;36.47;;;22.37;;
62798;SDS011;48842;51.046;13.796;2023-02-11T14:07:25;30.60;;;20.27;;
62798;SDS011;48842;51.046;13.796;2023-02-11T14:23:41;36.73;;;22.90;;
62798;SDS011;48842;51.046;13.796;2023-02-11T14:28:51;34.70;;;20.83;;
62798;SDS011;48842;51.046;13.796;2023-02-11T14:31:26;36.77;;;21.77;;
62798;SDS011;48842;51.046;13.796;2023-02-11T14:34:04;33.10;;;22.07;;
62798;SDS011;48842;51.046;13.796;2023-02-11T14:39:42;29.77;;;21.83;;
62798;SDS011;48842;51.046;13.796;2023-02-11T14:42:22;28.67;;;21.13;;
62798;SDS011;48842;51.046;13.796;2023-02-11T14:44:51;30.23;;;21.63;;
62798;SDS011;48842;51.046;13.796;2023-02-11T14:47:20;37.23;;;23.13;;
62798;SDS011;48842;51.046;13.796;2023-02-11T14:49:49;30.80;;;22.20;;
62798;SDS011;48842;51.046;13.796;2023-02-11T14:52:18;28.80;;;20.27;;
62798;SDS011;48842;51.046;13.796;2023-02-11T14:54:50;30.33;;;22.27;;
62798;SDS011;48842;51.046;13.796;2023-02-11T14:57:21;37.47;;;21.67;;
62798;SDS011;48842;51.046;13.796;2023-02-11T14:59:54;31.33;;;20.80;;
62798;SDS011;48842;51.046;13.796;2023-02-11T15:02:23;35.13;;;22.17;;
62798;SDS011;48842;51.046;13.796;2023-02-11T15:04:52;31.40;;;21.53;;
62798;SDS011;48842;51.046;13.796;2023-02-11T15:07:19;29.53;;;21.37;;
62798;SDS011;48842;51.046;13.796;2023-02-11T15:09:46;31.97;;;21.33;;
62798;SDS011;48842;51.046;13.796;2023-02-11T15:12:17;29.03;;;21.13;;
62798;SDS011;48842;51.046;13.796;2023-02-11T15:14:47;33.40;;;20.93;;
62798;SDS011;48842;51.046;13.796;2023-02-11T15:17:17;30.97;;;21.30;;
62798;SDS011;48842;51.046;13.796;2023-02-11T15:19:46;31.83;;;21.90;;
62798;SDS011;48842;51.046;13.796;2023-02-11T15:22:23;31.07;;;20.77;;
62798;SDS011;48842;51.046;13.796;2023-02-11T15:25:02;27.40;;;20.80;;
62798;SDS011;48842;51.046;13.796;2023-02-11T15:27:50;29.20;;;20.53;;
62798;SDS011;48842;51.046;13.796;2023-02-11T15:32:46;31.23;;;21.90;;
62798;SDS011;48842;51.046;13.796;2023-02-11T15:35:12;29.13;;;20.87;;
62798;SDS011;48842;51.046;13.796;2023-02-11T15:37:38;30.17;;;21.37;;
62798;SDS011;48842;51.046;13.796;2023-02-11T15:40:11;29.43;;;20.73;;
62798;SDS011;48842;51.046;13.796;2023-02-11T15:45:37;32.30;;;20.70;;
62798;SDS011;48842;51.046;13.796;2023-02-11T15:50:50;29.73;;;20.37;;
62798;SDS011;48842;51.046;13.796;2023-02-11T15:53:20;26.90;;;19.47;;
62798;SDS011;48842;51.046;13.796;2023-02-11T15:55:49;29.23;;;20.10;;
62798;SDS011;48842;51.046;13.796;2023-02-11T15:58:16;27.07;;;19.77;;
62798;SDS011;48842;51.046;13.796;2023-02-11T16:00:46;30.80;;;20.80;;
62798;SDS011;48842;51.046;13.796;2023-02-11T16:03:20;29.80;;;20.87;;
62798;SDS011;48842;51.046;13.796;2023-02-11T16:05:47;31.03;;;19.67;;